createdAt,value
2019-04-21T00:00:58.688Z,94.77
2019-04-21T00:01:54.095Z,94.48
2019-04-21T00:02:53.656Z,94.96
2019-04-21T00:03:57.521Z,95.15
2019-04-21T00:05:14.111Z,94.96
2019-04-21T00:06:08.915Z,94.87
2019-04-21T00:07:13.237Z,95.35
2019-04-21T00:08:22.879Z,95.68
2019-04-21T00:09:19.180Z,95.73
2019-04-21T00:10:16.818Z,95.30
2019-04-21T00:11:18.977Z,95.20
2019-04-21T00:12:13.983Z,95.40
2019-04-21T00:13:07.761Z,95.11
2019-04-21T00:14:05.715Z,95.40
2019-04-21T00:15:02.116Z,95.78
2019-04-21T00:15:57.717Z,95.78
2019-04-21T00:17:02.763Z,95.73
2019-04-21T00:17:58.886Z,95.68
2019-04-21T00:19:01.134Z,95.88
2019-04-21T00:20:05.569Z,96.08
2019-04-21T00:20:56.328Z,96.17
2019-04-21T00:22:05.930Z,95.68
2019-04-21T00:23:10.587Z,95.88
2019-04-21T00:24:04.890Z,96.26
2019-04-21T00:25:08.682Z,96.17
2019-04-21T00:26:07.104Z,96.46
2019-04-21T00:27:09.703Z,96.56
2019-04-21T00:28:13.969Z,95.88
2019-04-21T00:29:16.601Z,96.56
2019-04-21T00:30:15.738Z,96.75
2019-04-21T00:31:12.812Z,95.88
2019-04-21T00:32:10.493Z,96.66
2019-04-21T00:33:02.911Z,96.84
2019-04-21T00:33:55.100Z,96.84
2019-04-21T00:35:00.946Z,96.66
2019-04-21T00:36:00.700Z,96.08
2019-04-21T00:37:05.762Z,96.75
2019-04-21T00:38:17.230Z,96.66
2019-04-21T00:39:23.277Z,96.46
2019-04-21T00:40:17.943Z,96.75
2019-04-21T00:42:13.904Z,97.14
2019-04-21T00:43:13.673Z,96.94
2019-04-21T00:44:10.985Z,97.04
2019-04-21T00:45:10.743Z,96.66
2019-04-21T00:46:04.837Z,97.14
2019-04-21T00:47:05.477Z,97.24
2019-04-21T00:48:16.985Z,97.33
2019-04-21T00:49:12.482Z,97.24
2019-04-21T00:50:12.802Z,97.24
2019-04-21T00:52:28.843Z,97.42
2019-04-21T00:53:23.064Z,97.42
2019-04-21T00:54:16.748Z,96.94
2019-04-21T00:56:34.028Z,97.24
2019-04-21T00:57:18.087Z,97.62
2019-04-21T00:58:22.471Z,97.42
2019-04-21T00:59:20.029Z,97.42
2019-04-21T01:00:20.252Z,97.24
2019-04-21T01:01:16.219Z,97.33
2019-04-21T01:02:14.311Z,97.42
2019-04-21T01:03:20.169Z,97.24
2019-04-21T01:04:16.906Z,97.04
2019-04-21T01:05:19.850Z,97.42
2019-04-21T01:06:22.636Z,97.33
2019-04-21T01:07:12.587Z,97.72
2019-04-21T01:08:14.252Z,97.62
2019-04-21T01:09:13.604Z,97.33
2019-04-21T01:10:09.383Z,97.33
2019-04-21T01:11:18.856Z,97.33
2019-04-21T01:12:19.107Z,97.04
2019-04-21T01:13:21.594Z,97.62
2019-04-21T01:14:20.002Z,97.33
2019-04-21T01:15:26.183Z,97.77
2019-04-21T01:16:20.640Z,97.62
2019-04-21T01:17:19.270Z,98.30
2019-04-21T01:18:16.759Z,98.20
2019-04-21T01:19:16.677Z,98.30
2019-04-21T01:20:10.465Z,97.67
2019-04-21T01:20:56.049Z,98.05
2019-04-21T01:21:56.106Z,98.44
2019-04-21T01:22:56.140Z,97.96
2019-04-21T01:24:07.812Z,98.25
2019-04-21T01:25:07.009Z,98.44
2019-04-21T01:26:12.180Z,98.44
2019-04-21T01:27:06.367Z,98.34
2019-04-21T01:28:13.609Z,98.63
2019-04-21T01:29:12.038Z,98.34
2019-04-21T01:30:17.652Z,98.83
2019-04-21T01:31:15.383Z,98.92
2019-04-21T01:32:19.074Z,98.92
2019-04-21T01:33:21.991Z,98.63
2019-04-21T01:34:14.916Z,98.73
2019-04-21T01:35:16.439Z,98.73
2019-04-21T01:36:14.518Z,98.73
2019-04-21T01:37:15.840Z,98.92
2019-04-21T01:38:24.475Z,99.21
2019-04-21T01:39:19.727Z,99.40
2019-04-21T01:40:22.958Z,99.21
2019-04-21T01:41:21.303Z,99.21
2019-04-21T01:42:18.891Z,99.21
2019-04-21T01:43:14.836Z,99.02
2019-04-21T01:44:22.404Z,99.40
2019-04-21T01:45:14.623Z,99.40
2019-04-21T01:46:15.281Z,99.88
2019-04-21T01:47:14.515Z,99.50
2019-04-21T01:48:12.962Z,99.50
2019-04-21T01:49:10.620Z,99.98
2019-04-21T01:50:08.410Z,99.98
2019-04-21T01:51:12.938Z,99.99
2019-04-21T01:52:23.752Z,99.99
2019-04-21T01:53:23.920Z,99.99
2019-04-21T01:54:26.941Z,99.99
2019-04-21T01:55:21.222Z,99.99
2019-04-21T01:56:16.911Z,99.99
2019-04-21T01:57:17.783Z,99.99
2019-04-21T01:58:12.815Z,99.99
2019-04-21T01:59:08.304Z,99.99
2019-04-21T02:00:10.684Z,99.99
2019-04-21T02:01:16.064Z,99.99
2019-04-21T02:02:17.170Z,99.99
2019-04-21T02:03:36.195Z,99.99
2019-04-21T02:04:23.967Z,99.99
2019-04-21T02:05:26.455Z,99.99
2019-04-21T02:06:21.161Z,99.99
2019-04-21T02:07:25.348Z,99.99
2019-04-21T02:08:18.236Z,99.99
2019-04-21T02:09:15.409Z,99.99
2019-04-21T02:10:17.683Z,99.99
2019-04-21T02:11:23.133Z,99.99
2019-04-21T02:12:20.024Z,99.99
2019-04-21T02:13:20.226Z,99.99
2019-04-21T02:14:29.891Z,99.99
2019-04-21T02:15:23.881Z,99.99
2019-04-21T02:16:18.798Z,99.99
2019-04-21T02:17:17.367Z,99.99
2019-04-21T02:18:17.065Z,99.99
2019-04-21T02:19:18.257Z,99.99
2019-04-21T02:20:12.184Z,99.99
2019-04-21T02:21:10.459Z,99.99
2019-04-21T02:22:25.379Z,99.99
2019-04-21T02:23:28.185Z,99.99
2019-04-21T02:24:31.613Z,99.99
2019-04-21T02:25:23.124Z,99.99
2019-04-21T02:26:22.968Z,99.99
2019-04-21T02:27:19.184Z,99.99
2019-04-21T02:28:32.219Z,99.99
2019-04-21T02:29:24.518Z,99.99
2019-04-21T02:30:33.495Z,99.99
2019-04-21T02:31:36.150Z,99.99
2019-04-21T02:32:35.722Z,99.99
2019-04-21T02:34:37.042Z,99.99
2019-04-21T02:35:56.502Z,99.99
2019-04-21T02:39:30.307Z,99.99
2019-04-21T02:40:29.806Z,99.99
2019-04-21T02:41:35.511Z,99.99
2019-04-21T02:43:25.224Z,99.99
2019-04-21T02:44:37.428Z,99.99
2019-04-21T02:45:34.245Z,99.99
2019-04-21T02:46:40.066Z,99.99
2019-04-21T02:49:45.210Z,99.99
2019-04-21T02:50:31.583Z,99.99
2019-04-21T02:51:38.857Z,99.99
2019-04-21T02:52:37.424Z,99.99
2019-04-21T02:55:29.011Z,99.99
2019-04-21T02:56:34.471Z,99.99
2019-04-21T02:58:37.711Z,99.99
2019-04-21T02:59:39.183Z,99.99
2019-04-21T03:00:32.867Z,99.99
2019-04-21T03:01:42.403Z,99.99
2019-04-21T03:03:36.443Z,99.99
2019-04-21T03:04:36.149Z,99.99
2019-04-21T03:05:41.666Z,99.99
2019-04-21T03:06:34.985Z,99.99
2019-04-21T03:07:31.855Z,99.99
2019-04-21T03:08:44.751Z,99.99
2019-04-21T03:09:33.452Z,99.99
2019-04-21T03:10:38.274Z,99.99
2019-04-21T03:11:48.601Z,99.99
2019-04-21T03:13:42.939Z,99.99
2019-04-21T03:15:56.124Z,99.99
2019-04-21T03:16:27.902Z,99.99
2019-04-21T03:17:48.706Z,99.99
2019-04-21T03:18:36.394Z,99.99
2019-04-21T03:20:35.816Z,99.99
2019-04-21T03:21:28.961Z,99.99
2019-04-21T03:23:36.576Z,99.99
2019-04-21T03:24:53.507Z,99.99
2019-04-21T03:25:44.878Z,99.99
2019-04-21T03:27:46.279Z,99.99
2019-04-21T03:32:04.141Z,99.99
2019-04-21T03:35:03.850Z,99.99
2019-04-21T03:36:47.690Z,99.99
2019-04-21T03:37:42.462Z,99.99
2019-04-21T03:38:43.039Z,99.99
2019-04-21T03:39:37.462Z,99.99
2019-04-21T03:40:34.614Z,99.99
2019-04-21T03:41:39.548Z,99.99
2019-04-21T03:42:42.547Z,99.99
2019-04-21T03:43:36.433Z,99.99
2019-04-21T03:44:46.325Z,99.99
2019-04-21T03:46:41.457Z,99.99
2019-04-21T03:47:36.539Z,99.99
2019-04-21T03:48:36.553Z,99.99
2019-04-21T03:49:39.871Z,99.99
2019-04-21T03:52:42.488Z,99.99
2019-04-21T03:53:31.926Z,99.99
2019-04-21T03:54:37.280Z,99.99
2019-04-21T03:56:53.021Z,99.99
2019-04-21T03:57:52.853Z,99.99
2019-04-21T03:58:46.873Z,99.99
2019-04-21T03:59:26.404Z,99.99
2019-04-21T04:01:37.059Z,99.99
2019-04-21T04:02:42.650Z,99.99
2019-04-21T04:05:49.498Z,99.99
2019-04-21T04:06:34.363Z,99.99
2019-04-21T04:07:42.461Z,99.99
2019-04-21T04:09:36.762Z,99.99
2019-04-21T04:10:31.409Z,99.99
2019-04-21T04:11:41.512Z,99.99
2019-04-21T04:12:35.056Z,99.99
2019-04-21T04:13:53.332Z,99.99
2019-04-21T04:14:40.511Z,99.99
2019-04-21T04:15:38.604Z,99.99
2019-04-21T04:16:37.218Z,99.99
2019-04-21T04:17:34.423Z,99.99
2019-04-21T04:19:45.446Z,99.99
2019-04-21T04:20:39.924Z,99.99
2019-04-21T04:21:39.430Z,99.99
2019-04-21T04:23:41.543Z,99.99
2019-04-21T04:24:39.611Z,99.99
2019-04-21T04:25:35.481Z,99.99
2019-04-21T04:28:50.034Z,99.99
2019-04-21T04:31:39.548Z,99.99
2019-04-21T04:32:34.850Z,99.99
2019-04-21T04:34:42.033Z,99.99
2019-04-21T04:35:42.373Z,99.99
2019-04-21T04:37:36.336Z,99.99
2019-04-21T04:38:44.203Z,99.99
2019-04-21T04:40:39.017Z,99.99
2019-04-21T04:41:42.283Z,99.99
2019-04-21T04:42:43.285Z,99.99
2019-04-21T04:43:54.631Z,99.99
2019-04-21T04:44:46.432Z,99.99
2019-04-21T04:45:41.685Z,99.99
2019-04-21T04:46:59.427Z,99.99
2019-04-21T04:47:34.970Z,99.99
2019-04-21T04:48:37.479Z,99.99
2019-04-21T04:49:43.519Z,99.99
2019-04-21T04:50:41.064Z,99.99
2019-04-21T04:51:56.358Z,99.99
2019-04-21T04:54:49.305Z,99.99
2019-04-21T04:55:43.314Z,99.99
2019-04-21T04:56:43.414Z,99.99
2019-04-21T04:57:49.118Z,99.99
2019-04-21T05:00:54.590Z,99.99
2019-04-21T05:01:48.577Z,99.99
2019-04-21T05:02:48.482Z,99.99
2019-04-21T05:04:46.034Z,99.99
2019-04-21T05:05:36.193Z,99.99
2019-04-21T05:07:43.045Z,99.99
2019-04-21T05:08:56.675Z,99.99
2019-04-21T05:09:40.452Z,99.99
2019-04-21T05:10:47.659Z,99.99
2019-04-21T05:13:33.201Z,99.99
2019-04-21T05:14:38.940Z,99.99
2019-04-21T05:15:37.859Z,99.99
2019-04-21T05:18:46.920Z,99.99
2019-04-21T05:19:34.759Z,99.99
2019-04-21T05:20:31.051Z,99.99
2019-04-21T05:22:35.505Z,99.99
2019-04-21T05:23:31.660Z,99.99
2019-04-21T05:24:23.065Z,99.99
2019-04-21T05:25:23.379Z,99.99
2019-04-21T05:26:22.020Z,99.99
2019-04-21T05:27:23.417Z,99.99
2019-04-21T05:28:19.771Z,99.99
2019-04-21T05:29:22.711Z,99.99
2019-04-21T05:30:33.978Z,99.99
2019-04-21T05:31:36.754Z,99.99
2019-04-21T05:32:37.869Z,99.99
2019-04-21T05:33:32.156Z,99.99
2019-04-21T05:34:42.682Z,99.99
2019-04-21T05:35:26.791Z,99.99
2019-04-21T05:36:29.564Z,99.99
2019-04-21T05:37:33.260Z,99.99
2019-04-21T05:38:27.443Z,99.99
2019-04-21T05:39:26.237Z,99.99
2019-04-21T05:40:24.867Z,99.99
2019-04-21T05:41:23.188Z,99.99
2019-04-21T05:42:24.526Z,99.99
2019-04-21T05:44:35.341Z,99.99
2019-04-21T05:45:50.060Z,99.99
2019-04-21T05:46:35.128Z,99.99
2019-04-21T05:47:35.420Z,99.99
2019-04-21T05:49:29.769Z,99.99
2019-04-21T05:50:27.951Z,99.99
2019-04-21T05:51:25.084Z,99.99
2019-04-21T05:52:26.454Z,99.99
2019-04-21T05:54:39.689Z,99.99
2019-04-21T05:55:40.612Z,99.99
2019-04-21T05:56:33.584Z,99.99
2019-04-21T05:57:32.367Z,99.99
2019-04-21T05:58:36.666Z,99.99
2019-04-21T05:59:33.428Z,99.99
2019-04-21T06:01:41.110Z,99.99
2019-04-21T06:02:29.318Z,99.99
2019-04-21T06:04:54.782Z,99.99
2019-04-21T06:05:37.576Z,99.99
2019-04-21T06:06:33.606Z,99.99
2019-04-21T06:08:34.299Z,99.99
2019-04-21T06:09:41.021Z,99.99
2019-04-21T06:10:38.579Z,99.99
2019-04-21T06:11:30.843Z,99.99
2019-04-21T06:12:36.690Z,99.99
2019-04-21T06:14:42.238Z,99.99
2019-04-21T06:15:39.517Z,99.99
2019-04-21T06:16:40.402Z,99.99
2019-04-21T06:17:36.170Z,99.99
2019-04-21T06:19:41.363Z,99.99
2019-04-21T06:20:37.928Z,99.99
2019-04-21T06:21:35.713Z,99.99
2019-04-21T06:22:34.400Z,99.99
2019-04-21T06:23:38.733Z,99.99
2019-04-21T06:24:29.893Z,99.99
2019-04-21T06:26:51.767Z,99.99
2019-04-21T06:27:35.931Z,99.99
2019-04-21T06:29:41.577Z,99.99
2019-04-21T06:30:33.634Z,99.99
2019-04-21T06:32:46.795Z,99.99
2019-04-21T06:33:35.623Z,99.99
2019-04-21T06:34:55.186Z,99.99
2019-04-21T06:35:57.057Z,99.99
2019-04-21T06:36:47.092Z,99.99
2019-04-21T06:38:44.268Z,99.99
2019-04-21T06:39:39.911Z,99.99
2019-04-21T06:40:37.305Z,99.99
2019-04-21T06:41:34.352Z,99.99
2019-04-21T06:42:34.272Z,99.99
2019-04-21T06:43:33.320Z,99.99
2019-04-21T06:44:33.115Z,99.99
2019-04-21T06:45:36.595Z,99.99
2019-04-21T06:46:47.047Z,99.99
2019-04-21T06:47:42.255Z,99.99
2019-04-21T06:48:32.962Z,99.99
2019-04-21T06:49:30.241Z,99.99
2019-04-21T06:50:44.170Z,99.99
2019-04-21T06:51:33.706Z,99.99
2019-04-21T06:52:46.280Z,99.99
2019-04-21T06:53:39.664Z,99.99
2019-04-21T06:54:35.613Z,99.99
2019-04-21T06:55:35.205Z,99.99
2019-04-21T06:56:51.550Z,99.99
2019-04-21T06:57:33.288Z,99.99
2019-04-21T06:58:31.991Z,99.99
2019-04-21T06:59:32.013Z,99.99
2019-04-21T07:00:30.547Z,99.99
2019-04-21T07:01:36.856Z,99.99
2019-04-21T07:02:43.791Z,99.99
2019-04-21T07:03:34.875Z,99.99
2019-04-21T07:05:33.533Z,99.99
2019-04-21T07:06:37.275Z,99.99
2019-04-21T07:07:35.267Z,99.99
2019-04-21T07:08:36.462Z,99.99
2019-04-21T07:09:31.100Z,99.99
2019-04-21T07:10:35.466Z,99.99
2019-04-21T07:11:31.790Z,99.99
2019-04-21T07:12:37.050Z,99.99
2019-04-21T07:13:30.915Z,99.99
2019-04-21T07:14:47.907Z,99.99
2019-04-21T07:15:41.928Z,99.99
2019-04-21T07:16:38.787Z,99.99
2019-04-21T07:17:35.837Z,99.99
2019-04-21T07:18:34.330Z,99.99
2019-04-21T07:19:46.738Z,99.99
2019-04-21T07:20:36.258Z,99.99
2019-04-21T07:21:33.846Z,99.99
2019-04-21T07:22:37.618Z,99.99
2019-04-21T07:23:40.010Z,99.99
2019-04-21T07:24:41.704Z,99.99
2019-04-21T07:25:38.504Z,99.99
2019-04-21T07:26:36.727Z,99.99
2019-04-21T07:27:35.484Z,99.99
2019-04-21T07:28:46.084Z,99.99
2019-04-21T07:29:44.585Z,99.99
2019-04-21T07:30:35.161Z,99.99
2019-04-21T07:31:44.525Z,99.99
2019-04-21T07:32:36.341Z,99.99
2019-04-21T07:35:40.380Z,99.99
2019-04-21T07:36:46.343Z,99.99
2019-04-21T07:37:35.110Z,99.99
2019-04-21T07:38:36.210Z,99.99
2019-04-21T07:39:35.589Z,99.99
2019-04-21T07:41:25.182Z,99.99
2019-04-21T07:42:32.531Z,99.99
2019-04-21T07:43:29.974Z,99.99
2019-04-21T07:44:30.235Z,99.99
2019-04-21T07:45:30.151Z,99.99
2019-04-21T07:46:25.605Z,99.99
2019-04-21T07:47:36.682Z,99.99
2019-04-21T07:49:32.897Z,99.99
2019-04-21T07:50:34.462Z,99.99
2019-04-21T07:51:43.504Z,99.99
2019-04-21T07:52:34.839Z,99.99
2019-04-21T07:53:48.203Z,99.99
2019-04-21T07:54:37.477Z,99.99
2019-04-21T07:56:19.959Z,99.99
2019-04-21T07:57:33.073Z,99.99
2019-04-21T07:58:36.400Z,99.99
2019-04-21T07:59:48.566Z,99.99
2019-04-21T08:00:36.340Z,99.99
2019-04-21T08:01:40.077Z,99.99
2019-04-21T08:02:38.571Z,99.99
2019-04-21T08:03:37.238Z,99.99
2019-04-21T08:05:39.265Z,99.99
2019-04-21T08:06:43.502Z,99.99
2019-04-21T08:07:47.728Z,99.99
2019-04-21T08:08:33.733Z,99.99
2019-04-21T08:09:36.840Z,99.99
2019-04-21T08:10:33.576Z,99.99
2019-04-21T08:11:32.671Z,99.99
2019-04-21T08:12:29.928Z,99.99
2019-04-21T08:13:41.818Z,99.99
2019-04-21T08:14:37.739Z,99.99
2019-04-21T08:15:33.892Z,99.99
2019-04-21T08:16:37.245Z,99.99
2019-04-21T08:17:36.735Z,99.99
2019-04-21T08:18:39.368Z,99.99
2019-04-21T08:19:36.880Z,99.99
2019-04-21T08:20:34.855Z,99.99
2019-04-21T08:21:33.940Z,99.99
2019-04-21T08:22:41.300Z,99.99
2019-04-21T08:23:37.131Z,99.99
2019-04-21T08:24:34.696Z,99.99
2019-04-21T08:25:43.621Z,99.99
2019-04-21T08:26:39.821Z,99.99
2019-04-21T08:27:42.878Z,99.99
2019-04-21T08:28:42.667Z,99.99
2019-04-21T08:29:39.433Z,99.99
2019-04-21T08:30:38.114Z,99.99
2019-04-21T08:31:46.983Z,99.99
2019-04-21T08:32:46.173Z,99.99
2019-04-21T08:33:38.400Z,99.99
2019-04-21T08:34:34.829Z,99.99
2019-04-21T08:36:01.172Z,99.99
2019-04-21T08:36:34.944Z,99.99
2019-04-21T08:37:39.871Z,99.99
2019-04-21T08:38:35.866Z,99.99
2019-04-21T08:39:37.701Z,99.99
2019-04-21T08:40:49.707Z,99.99
2019-04-21T08:41:31.346Z,99.99
2019-04-21T08:42:41.282Z,99.99
2019-04-21T08:43:43.092Z,99.99
2019-04-21T08:44:43.801Z,99.99
2019-04-21T08:46:38.732Z,99.99
2019-04-21T08:47:43.604Z,99.99
2019-04-21T08:48:40.363Z,99.99
2019-04-21T08:49:37.955Z,99.99
2019-04-21T08:50:37.390Z,99.99
2019-04-21T08:51:39.684Z,99.99
2019-04-21T08:53:45.872Z,99.99
2019-04-21T08:54:38.674Z,99.99
2019-04-21T08:55:39.975Z,99.99
2019-04-21T08:56:34.329Z,99.99
2019-04-21T08:57:41.710Z,99.99
2019-04-21T08:58:59.055Z,99.99
2019-04-21T08:59:41.454Z,99.99
2019-04-21T09:00:38.929Z,99.99
2019-04-21T09:01:38.177Z,99.99
2019-04-21T09:03:35.489Z,99.99
2019-04-21T09:04:33.501Z,99.99
2019-04-21T09:05:40.969Z,99.99
2019-04-21T09:06:54.299Z,99.99
2019-04-21T09:07:39.097Z,99.99
2019-04-21T09:08:44.466Z,99.99
2019-04-21T09:10:35.377Z,99.99
2019-04-21T09:11:34.815Z,99.99
2019-04-21T09:12:37.161Z,99.99
2019-04-21T09:13:37.196Z,99.99
2019-04-21T09:14:36.641Z,99.99
2019-04-21T09:15:35.142Z,99.99
2019-04-21T09:16:33.461Z,99.99
2019-04-21T09:17:28.517Z,99.99
2019-04-21T09:18:32.464Z,99.99
2019-04-21T09:19:47.049Z,99.99
2019-04-21T09:20:50.855Z,99.99
2019-04-21T09:21:39.480Z,99.99
2019-04-21T09:22:35.844Z,99.99
2019-04-21T09:23:36.168Z,99.99
2019-04-21T09:24:35.115Z,99.99
2019-04-21T09:25:40.635Z,99.99
2019-04-21T09:26:34.245Z,99.99
2019-04-21T09:27:35.655Z,99.99
2019-04-21T09:28:31.283Z,99.99
2019-04-21T09:29:28.293Z,99.99
2019-04-21T09:30:19.813Z,99.99
2019-04-21T09:31:24.127Z,99.99
2019-04-21T09:32:23.183Z,99.99
2019-04-21T09:33:18.620Z,99.99
2019-04-21T09:34:24.890Z,99.99
2019-04-21T09:35:20.081Z,99.99
2019-04-21T09:36:23.186Z,99.99
2019-04-21T09:37:28.743Z,99.99
2019-04-21T09:38:27.565Z,99.99
2019-04-21T09:39:22.634Z,99.99
2019-04-21T09:40:27.367Z,99.99
2019-04-21T09:41:22.161Z,99.99
2019-04-21T09:42:20.158Z,99.99
2019-04-21T09:43:29.913Z,99.99
2019-04-21T09:44:25.977Z,99.99
2019-04-21T09:45:22.431Z,99.99
2019-04-21T09:46:19.161Z,99.99
2019-04-21T09:47:22.669Z,99.99
2019-04-21T09:48:22.367Z,99.99
2019-04-21T09:49:23.934Z,99.99
2019-04-21T09:50:19.869Z,99.99
2019-04-21T09:51:20.088Z,99.99
2019-04-21T09:52:25.418Z,99.99
2019-04-21T09:53:26.887Z,99.99
2019-04-21T09:54:24.841Z,99.99
2019-04-21T09:55:23.255Z,99.99
2019-04-21T09:56:31.556Z,99.99
2019-04-21T09:57:29.945Z,99.99
2019-04-21T09:58:29.274Z,99.99
2019-04-21T09:59:26.294Z,99.99
2019-04-21T10:00:24.788Z,99.99
2019-04-21T10:01:28.259Z,99.99
2019-04-21T10:02:33.163Z,99.99
2019-04-21T10:03:21.243Z,99.99
2019-04-21T10:04:20.767Z,99.99
2019-04-21T10:05:21.372Z,99.99
2019-04-21T10:06:20.791Z,99.99
2019-04-21T10:07:26.533Z,99.99
2019-04-21T10:08:20.138Z,99.99
2019-04-21T10:09:21.677Z,99.99
2019-04-21T10:10:20.248Z,99.99
2019-04-21T10:11:21.059Z,99.99
2019-04-21T10:12:20.314Z,99.99
2019-04-21T10:13:20.870Z,99.99
2019-04-21T10:14:20.410Z,99.99
2019-04-21T10:15:23.260Z,99.99
2019-04-21T10:16:21.580Z,99.99
2019-04-21T10:17:21.757Z,99.99
2019-04-21T10:18:21.681Z,99.65
2019-04-21T10:19:21.082Z,96.89
2019-04-21T10:20:20.725Z,95.97
2019-04-21T10:21:22.036Z,94.27
2019-04-21T10:22:21.145Z,93.02
2019-04-21T10:23:21.199Z,93.21
2019-04-21T10:24:22.115Z,92.29
2019-04-21T10:25:20.965Z,93.26
2019-04-21T10:26:22.135Z,91.65
2019-04-21T10:27:21.176Z,90.53
2019-04-21T10:28:21.194Z,88.64
2019-04-21T10:29:25.750Z,87.51
2019-04-21T10:30:22.401Z,85.77
2019-04-21T10:31:21.230Z,85.13
2019-04-21T10:32:23.480Z,84.55
2019-04-21T10:33:22.042Z,83.47
2019-04-21T10:34:21.369Z,83.18
2019-04-21T10:35:23.083Z,82.70
2019-04-21T10:36:22.708Z,82.31
2019-04-21T10:37:34.030Z,82.15
2019-04-21T10:38:30.478Z,80.50
2019-04-21T10:39:21.801Z,80.64
2019-04-21T10:40:21.664Z,81.22
2019-04-21T10:41:21.714Z,80.69
2019-04-21T10:42:21.755Z,80.79
2019-04-21T10:43:23.686Z,80.69
2019-04-21T10:44:23.171Z,80.36
2019-04-21T10:45:22.996Z,80.50
2019-04-21T10:46:22.460Z,79.08
2019-04-21T10:47:22.774Z,78.89
2019-04-21T10:48:23.115Z,78.01
2019-04-21T10:49:22.589Z,78.11
2019-04-21T10:50:22.634Z,78.27
2019-04-21T10:51:23.137Z,78.66
2019-04-21T10:52:22.870Z,78.89
2019-04-21T10:53:23.044Z,78.53
2019-04-21T10:54:22.375Z,77.31
2019-04-21T10:55:41.763Z,76.96
2019-04-21T10:56:30.705Z,74.91
2019-04-21T10:57:22.503Z,74.82
2019-04-21T10:58:22.673Z,75.30
2019-04-21T10:59:24.908Z,75.34
2019-04-21T11:00:23.935Z,73.88
2019-04-21T11:01:23.198Z,73.88
2019-04-21T11:02:23.115Z,73.65
2019-04-21T11:03:22.865Z,73.68
2019-04-21T11:04:28.991Z,73.49
2019-04-21T11:05:22.964Z,72.61
2019-04-21T11:06:24.356Z,73.39
2019-04-21T11:07:26.526Z,73.00
2019-04-21T11:08:30.034Z,72.64
2019-04-21T11:09:24.110Z,72.58
2019-04-21T11:10:23.237Z,72.33
2019-04-21T11:11:23.911Z,71.09
2019-04-21T11:12:23.985Z,69.73
2019-04-21T11:13:23.346Z,69.82
2019-04-21T11:14:23.431Z,69.73
2019-04-21T11:15:23.464Z,69.85
2019-04-21T11:16:23.596Z,69.66
2019-04-21T11:17:23.966Z,68.10
2019-04-21T11:18:24.045Z,68.03
2019-04-21T11:19:24.238Z,67.93
2019-04-21T11:20:24.708Z,68.03
2019-04-21T11:21:24.954Z,67.87
2019-04-21T11:22:25.077Z,66.53
2019-04-21T11:23:25.029Z,65.88
2019-04-21T11:24:25.024Z,66.27
2019-04-21T11:25:24.358Z,65.09
2019-04-21T11:26:24.356Z,65.39
2019-04-21T11:27:24.697Z,65.13
2019-04-21T11:28:24.824Z,64.84
2019-04-21T11:29:26.153Z,64.15
2019-04-21T11:30:25.515Z,64.25
2019-04-21T11:31:25.022Z,63.66
2019-04-21T11:32:25.268Z,64.54
2019-04-21T11:33:24.947Z,65.09
2019-04-21T11:34:25.131Z,65.69
2019-04-21T11:35:25.497Z,64.84
2019-04-21T11:36:24.979Z,64.05
2019-04-21T11:37:24.662Z,64.94
2019-04-21T11:38:27.297Z,64.15
2019-04-21T11:39:35.314Z,65.62
2019-04-21T11:40:25.476Z,63.69
2019-04-21T11:41:25.674Z,63.62
2019-04-21T11:42:25.751Z,62.87
2019-04-21T11:43:24.970Z,62.05
2019-04-21T11:44:25.028Z,61.00
2019-04-21T11:45:26.332Z,59.92
2019-04-21T11:46:26.658Z,60.21
2019-04-21T11:47:25.248Z,60.31
2019-04-21T11:48:26.166Z,60.28
2019-04-21T11:49:27.613Z,60.21
2019-04-21T11:50:25.383Z,59.50
2019-04-21T11:51:26.678Z,60.15
2019-04-21T11:52:25.487Z,61.23
2019-04-21T11:53:25.533Z,61.00
2019-04-21T11:54:26.740Z,59.23
2019-04-21T11:55:29.495Z,60.41
2019-04-21T11:56:27.108Z,60.44
2019-04-21T11:57:28.724Z,58.96
2019-04-21T11:58:26.341Z,58.18
2019-04-21T11:59:25.937Z,57.78
2019-04-21T12:00:25.899Z,58.44
2019-04-21T12:01:25.998Z,58.25
2019-04-21T12:02:26.074Z,58.48
2019-04-21T12:03:27.502Z,59.76
2019-04-21T12:04:27.400Z,59.79
2019-04-21T12:05:27.572Z,59.33
2019-04-21T12:06:32.225Z,58.67
2019-04-21T12:07:27.226Z,57.29
2019-04-21T12:08:33.047Z,57.17
2019-04-21T12:09:27.326Z,58.94
2019-04-21T12:10:27.145Z,58.11
2019-04-21T12:11:27.267Z,57.25
2019-04-21T12:12:27.509Z,57.25
2019-04-21T12:13:27.795Z,57.15
2019-04-21T12:14:27.899Z,56.95
2019-04-21T12:15:27.090Z,55.87
2019-04-21T12:16:26.868Z,56.37
2019-04-21T12:17:27.959Z,55.38
2019-04-21T12:18:29.934Z,55.58
2019-04-21T12:19:27.149Z,56.27
2019-04-21T12:20:28.476Z,56.69
2019-04-21T12:21:31.145Z,56.88
2019-04-21T12:22:31.603Z,56.62
2019-04-21T12:23:27.214Z,55.31
2019-04-21T12:24:30.003Z,55.53
2019-04-21T12:25:27.379Z,54.82
2019-04-21T12:26:28.296Z,54.94
2019-04-21T12:27:27.799Z,56.15
2019-04-21T12:28:28.065Z,54.77
2019-04-21T12:29:29.044Z,54.77
2019-04-21T12:30:27.638Z,54.30
2019-04-21T12:31:27.742Z,54.43
2019-04-21T12:32:28.353Z,54.85
2019-04-21T12:33:27.961Z,53.57
2019-04-21T12:34:28.112Z,53.27
2019-04-21T12:35:28.109Z,53.59
2019-04-21T12:36:27.977Z,53.30
2019-04-21T12:37:28.912Z,53.59
2019-04-21T12:38:36.366Z,53.54
2019-04-21T12:39:28.162Z,53.44
2019-04-21T12:40:28.456Z,53.22
2019-04-21T12:41:28.756Z,53.19
2019-04-21T12:42:28.382Z,53.66
2019-04-21T12:43:28.612Z,53.96
2019-04-21T12:44:29.520Z,54.16
2019-04-21T12:45:28.535Z,53.36
2019-04-21T12:46:29.770Z,52.70
2019-04-21T12:47:30.005Z,53.49
2019-04-21T12:48:29.621Z,53.02
2019-04-21T12:49:29.728Z,52.85
2019-04-21T12:50:30.016Z,51.87
2019-04-21T12:51:30.153Z,52.33
2019-04-21T12:52:29.490Z,54.18
2019-04-21T12:53:29.732Z,54.84
2019-04-21T12:54:29.854Z,54.82
2019-04-21T12:55:34.080Z,56.02
2019-04-21T12:56:29.493Z,55.14
2019-04-21T12:57:31.421Z,53.96
2019-04-21T12:58:29.300Z,53.69
2019-04-21T12:59:32.147Z,53.59
2019-04-21T13:00:29.429Z,53.59
2019-04-21T13:01:30.652Z,54.40
2019-04-21T13:02:29.642Z,54.30
2019-04-21T13:03:30.409Z,53.44
2019-04-21T13:04:29.657Z,52.46
2019-04-21T13:05:29.746Z,51.67
2019-04-21T13:06:29.763Z,50.68
2019-04-21T13:07:31.124Z,51.18
2019-04-21T13:08:43.605Z,51.57
2019-04-21T13:09:31.977Z,52.53
2019-04-21T13:10:30.551Z,51.45
2019-04-21T13:11:30.969Z,51.12
2019-04-21T13:12:31.099Z,51.62
2019-04-21T13:13:30.279Z,52.40
2019-04-21T13:14:31.516Z,52.04
2019-04-21T13:15:31.399Z,51.87
2019-04-21T13:16:31.604Z,51.03
2019-04-21T13:17:31.087Z,51.74
2019-04-21T13:18:31.235Z,52.43
2019-04-21T13:19:31.530Z,51.15
2019-04-21T13:20:30.621Z,52.21
2019-04-21T13:21:31.916Z,51.72
2019-04-21T13:22:32.028Z,52.80
2019-04-21T13:23:31.346Z,52.53
2019-04-21T13:24:31.805Z,51.89
2019-04-21T13:25:31.771Z,51.23
2019-04-21T13:26:41.904Z,50.68
2019-04-21T13:27:31.038Z,49.30
2019-04-21T13:28:32.444Z,49.22
2019-04-21T13:29:32.274Z,46.66
2019-04-21T13:30:32.540Z,46.11
2019-04-21T13:31:32.067Z,46.59
2019-04-21T13:32:31.337Z,47.65
2019-04-21T13:33:31.423Z,47.87
2019-04-21T13:34:31.796Z,46.56
2019-04-21T13:35:33.030Z,47.94
2019-04-21T13:36:31.817Z,47.16
2019-04-21T13:37:32.975Z,49.03
2019-04-21T13:38:37.784Z,47.75
2019-04-21T13:39:57.134Z,47.94
2019-04-21T13:40:49.845Z,48.54
2019-04-21T13:41:42.790Z,48.54
2019-04-21T13:42:39.378Z,46.94
2019-04-21T13:43:32.987Z,48.24
2019-04-21T13:44:33.078Z,48.16
2019-04-21T13:45:32.314Z,47.67
2019-04-21T13:46:32.220Z,46.69
2019-04-21T13:47:32.567Z,46.56
2019-04-21T13:48:32.760Z,48.79
2019-04-21T13:49:32.409Z,49.33
2019-04-21T13:50:33.242Z,50.88
2019-04-21T13:51:34.009Z,52.01
2019-04-21T13:52:33.150Z,51.72
2019-04-21T13:53:34.317Z,53.29
2019-04-21T13:54:33.732Z,52.50
2019-04-21T13:55:36.688Z,51.74
2019-04-21T13:56:34.342Z,51.45
2019-04-21T13:57:34.522Z,51.07
2019-04-21T13:58:32.942Z,51.57
2019-04-21T13:59:34.268Z,51.30
2019-04-21T14:00:33.799Z,50.31
2019-04-21T14:01:33.966Z,50.81
2019-04-21T14:02:34.457Z,50.83
2019-04-21T14:03:33.435Z,51.12
2019-04-21T14:04:33.684Z,51.92
2019-04-21T14:05:33.354Z,51.62
2019-04-21T14:06:34.258Z,51.32
2019-04-21T14:07:34.382Z,51.54
2019-04-21T14:08:33.652Z,50.76
2019-04-21T14:09:40.227Z,50.88